createdAt,value
2022-10-25T00:01:18.581Z,2.80
2022-10-25T00:04:05.632Z,8.93
2022-10-25T00:06:51.895Z,3.07
2022-10-25T00:09:39.789Z,3.27
2022-10-25T00:12:25.808Z,5.40
2022-10-25T00:15:13.961Z,6.97
2022-10-25T00:17:59.734Z,2.70
2022-10-25T00:20:46.765Z,3.10
2022-10-25T00:23:32.586Z,4.27
2022-10-25T00:26:18.894Z,5.03
2022-10-25T00:29:04.871Z,5.10
2022-10-25T00:31:50.726Z,3.93
2022-10-25T00:34:36.335Z,2.83
2022-10-25T00:37:22.089Z,4.07
2022-10-25T00:40:08.548Z,3.67
2022-10-25T00:42:54.311Z,6.57
2022-10-25T00:45:40.295Z,3.50
2022-10-25T00:48:26.350Z,2.97
2022-10-25T00:51:12.354Z,2.73
2022-10-25T00:53:58.255Z,3.10
2022-10-25T00:56:46.331Z,4.27
2022-10-25T00:59:32.312Z,3.00
2022-10-25T01:02:18.880Z,4.43
2022-10-25T01:05:05.213Z,3.23
2022-10-25T01:07:51.134Z,4.07
2022-10-25T01:10:37.156Z,6.13
2022-10-25T01:13:22.947Z,5.30
2022-10-25T01:16:18.092Z,5.00
2022-10-25T01:19:25.795Z,3.33
2022-10-25T01:22:31.631Z,3.10
2022-10-25T01:25:35.625Z,3.00
2022-10-25T01:28:33.440Z,3.10
2022-10-25T01:31:32.510Z,2.77
2022-10-25T01:34:27.473Z,2.73
2022-10-25T01:37:26.701Z,5.70
2022-10-25T01:40:18.833Z,3.20
2022-10-25T01:43:07.715Z,3.77
2022-10-25T01:45:54.397Z,4.90
2022-10-25T01:48:44.327Z,3.10
2022-10-25T01:51:30.575Z,12.17
2022-10-25T01:54:20.800Z,3.53
2022-10-25T01:57:14.451Z,3.30
2022-10-25T02:00:32.919Z,3.00
2022-10-25T02:03:35.393Z,3.50
2022-10-25T02:06:28.495Z,4.63
2022-10-25T02:09:14.697Z,6.00
2022-10-25T02:12:01.497Z,3.30
2022-10-25T02:14:54.573Z,5.27
2022-10-25T02:17:47.035Z,5.93
2022-10-25T02:20:34.999Z,2.63
2022-10-25T02:23:21.124Z,3.87
2022-10-25T02:26:08.053Z,2.50
2022-10-25T02:28:53.919Z,2.83
2022-10-25T02:31:40.084Z,2.57
2022-10-25T02:34:26.245Z,3.60
2022-10-25T02:37:12.074Z,2.73
2022-10-25T02:39:58.464Z,4.00
2022-10-25T02:42:44.545Z,4.13
2022-10-25T02:45:30.155Z,4.63
2022-10-25T02:48:16.115Z,3.90
2022-10-25T02:51:02.108Z,2.50
2022-10-25T02:53:48.041Z,4.27
2022-10-25T02:56:36.312Z,6.57
2022-10-25T02:59:22.091Z,6.63
2022-10-25T03:02:07.856Z,2.53
2022-10-25T03:04:53.460Z,4.17
2022-10-25T03:07:39.026Z,3.83
2022-10-25T03:10:24.959Z,8.30
2022-10-25T03:13:10.665Z,2.70
2022-10-25T03:15:56.571Z,2.97
2022-10-25T03:18:42.564Z,4.73
2022-10-25T03:21:28.294Z,3.03
2022-10-25T03:24:13.887Z,4.50
2022-10-25T03:27:00.425Z,7.33
2022-10-25T03:29:46.137Z,2.90
2022-10-25T03:32:32.007Z,6.17
2022-10-25T03:35:17.652Z,7.80
2022-10-25T03:38:03.447Z,3.40
2022-10-25T03:40:49.222Z,3.10
2022-10-25T03:43:35.344Z,2.57
2022-10-25T03:46:21.034Z,6.43
2022-10-25T03:49:06.960Z,4.20
2022-10-25T03:51:57.042Z,2.90
2022-10-25T03:54:44.832Z,4.77
2022-10-25T03:57:30.528Z,6.90
2022-10-25T04:00:16.277Z,4.63
2022-10-25T04:03:02.827Z,4.03
2022-10-25T04:05:48.911Z,4.00
2022-10-25T04:08:34.629Z,5.87
2022-10-25T04:11:20.548Z,2.80
2022-10-25T04:14:06.290Z,3.20
2022-10-25T04:16:52.184Z,5.83
2022-10-25T04:19:38.017Z,3.60
2022-10-25T04:22:23.591Z,7.47
2022-10-25T04:25:09.284Z,9.53
2022-10-25T04:27:55.260Z,6.97
2022-10-25T04:30:41.284Z,4.27
2022-10-25T04:33:27.304Z,5.10
2022-10-25T04:36:13.055Z,7.17
2022-10-25T04:38:59.443Z,5.20
2022-10-25T04:41:45.147Z,5.73
2022-10-25T04:44:31.001Z,4.97
2022-10-25T04:47:16.745Z,3.60
2022-10-25T04:50:02.740Z,7.30
2022-10-25T04:52:48.773Z,4.57
2022-10-25T04:55:34.731Z,6.43
2022-10-25T04:58:20.955Z,4.50
2022-10-25T05:01:08.383Z,4.87
2022-10-25T05:03:54.243Z,6.40
2022-10-25T05:06:39.926Z,3.50
2022-10-25T05:09:25.530Z,6.60
2022-10-25T05:12:11.437Z,4.00
2022-10-25T05:14:57.238Z,7.03
2022-10-25T05:17:43.156Z,7.80
2022-10-25T05:20:30.710Z,4.70
2022-10-25T05:23:16.275Z,7.70
2022-10-25T05:26:06.056Z,8.13
2022-10-25T05:28:53.948Z,5.87
2022-10-25T05:31:41.222Z,7.10
2022-10-25T05:34:27.445Z,3.80
2022-10-25T05:37:13.165Z,8.90
2022-10-25T05:39:58.935Z,5.27
2022-10-25T05:42:44.762Z,6.70
2022-10-25T05:45:30.959Z,4.30
2022-10-25T05:48:16.811Z,4.73
2022-10-25T05:51:37.784Z,7.17
2022-10-25T05:54:24.365Z,5.90
2022-10-25T05:57:09.836Z,6.07
2022-10-25T05:59:55.763Z,8.03
2022-10-25T06:02:41.208Z,5.27
2022-10-25T06:05:26.795Z,4.20
2022-10-25T06:08:12.621Z,6.63
2022-10-25T06:11:27.683Z,8.33
2022-10-25T06:14:13.414Z,5.20
2022-10-25T06:16:58.945Z,11.87
2022-10-25T06:19:47.330Z,9.27
2022-10-25T06:22:33.220Z,7.10
2022-10-25T06:25:18.723Z,7.87
2022-10-25T06:28:04.932Z,4.00
2022-10-25T06:30:50.841Z,9.20
2022-10-25T06:33:36.344Z,7.90
2022-10-25T06:36:23.234Z,4.03
2022-10-25T06:39:08.966Z,4.77
2022-10-25T06:41:54.690Z,6.90
2022-10-25T06:44:40.356Z,6.73
2022-10-25T06:47:27.340Z,6.07
2022-10-25T06:50:14.319Z,7.60
2022-10-25T06:53:00.219Z,6.27
2022-10-25T06:55:47.072Z,6.37
2022-10-25T06:58:33.308Z,4.63
2022-10-25T07:01:20.235Z,5.27
2022-10-25T07:04:08.261Z,5.60
2022-10-25T07:06:55.327Z,5.60
2022-10-25T07:09:41.674Z,6.70
2022-10-25T07:12:27.480Z,9.80
2022-10-25T07:15:13.404Z,4.47
2022-10-25T07:17:59.729Z,8.43
2022-10-25T07:20:48.397Z,7.37
2022-10-25T07:23:34.585Z,4.43
2022-10-25T07:26:25.058Z,7.90
2022-10-25T07:29:11.816Z,5.17
2022-10-25T07:31:58.811Z,6.03
2022-10-25T07:34:44.676Z,5.60
2022-10-25T07:37:31.033Z,5.63
2022-10-25T07:40:16.676Z,6.33
2022-10-25T07:43:02.564Z,8.30
2022-10-25T07:45:50.313Z,9.03
2022-10-25T07:48:36.387Z,15.23
2022-10-25T07:51:24.257Z,6.17
2022-10-25T07:54:10.244Z,4.37
2022-10-25T07:56:56.109Z,5.67
2022-10-25T07:59:41.875Z,8.10
2022-10-25T08:02:27.838Z,6.27
2022-10-25T08:05:13.717Z,5.63
2022-10-25T08:07:59.364Z,9.83
2022-10-25T08:10:44.997Z,7.20
2022-10-25T08:13:30.868Z,6.90
2022-10-25T08:16:16.389Z,9.03
2022-10-25T08:19:02.369Z,11.60
2022-10-25T08:21:48.368Z,7.20
2022-10-25T08:24:35.860Z,5.57
2022-10-25T08:27:21.930Z,6.37
2022-10-25T08:30:08.202Z,7.83
2022-10-25T08:32:53.711Z,10.07
2022-10-25T08:35:41.901Z,10.13
2022-10-25T08:38:27.984Z,7.77
2022-10-25T08:41:19.524Z,8.00
2022-10-25T08:44:17.693Z,6.73
2022-10-25T08:47:08.098Z,5.93
2022-10-25T08:49:54.130Z,6.73
2022-10-25T08:52:55.974Z,6.13
2022-10-25T08:55:58.680Z,4.47
2022-10-25T08:58:57.112Z,8.40
2022-10-25T09:01:48.747Z,5.80
2022-10-25T09:04:34.594Z,6.33
2022-10-25T09:07:29.764Z,13.00
2022-10-25T09:10:42.407Z,7.30
2022-10-25T09:13:40.439Z,8.57
2022-10-25T09:16:33.384Z,5.60
2022-10-25T09:19:24.943Z,7.47
2022-10-25T09:22:37.197Z,7.00
2022-10-25T09:25:45.576Z,6.03
2022-10-25T09:28:40.126Z,5.00
2022-10-25T09:31:26.368Z,10.17
2022-10-25T09:34:12.559Z,4.73
2022-10-25T09:37:02.658Z,6.70
2022-10-25T09:39:53.941Z,6.80
2022-10-25T09:42:52.098Z,8.20
2022-10-25T09:45:52.605Z,7.10
2022-10-25T09:48:42.714Z,10.80
2022-10-25T09:51:32.586Z,9.83
2022-10-25T09:54:31.493Z,5.90
2022-10-25T09:57:17.036Z,11.33
2022-10-25T10:00:02.637Z,9.33
2022-10-25T10:02:57.526Z,5.77
2022-10-25T10:05:57.004Z,5.03
2022-10-25T10:08:46.418Z,8.10
2022-10-25T10:11:32.897Z,14.57
2022-10-25T10:14:21.447Z,7.40
2022-10-25T10:17:07.979Z,5.40
2022-10-25T10:20:09.123Z,8.27
2022-10-25T10:22:55.108Z,5.50
2022-10-25T10:25:48.032Z,5.50
2022-10-25T10:28:33.854Z,5.30
2022-10-25T10:31:20.136Z,7.50
2022-10-25T10:34:09.096Z,9.13
2022-10-25T10:37:13.733Z,5.07
2022-10-25T10:40:00.529Z,7.40
2022-10-25T10:42:46.743Z,4.83
2022-10-25T10:45:34.940Z,7.93
2022-10-25T10:48:25.184Z,8.23
2022-10-25T10:51:31.580Z,9.30
2022-10-25T10:54:22.998Z,7.27
2022-10-25T10:57:20.676Z,6.90
2022-10-25T11:00:06.852Z,6.77
2022-10-25T11:02:53.306Z,6.87
2022-10-25T11:05:39.684Z,7.23
2022-10-25T11:08:25.169Z,4.70
2022-10-25T11:11:24.655Z,10.00
2022-10-25T11:14:14.705Z,6.37
2022-10-25T11:17:13.588Z,8.63
2022-10-25T11:20:18.840Z,8.43
2022-10-25T11:23:08.951Z,4.00
2022-10-25T11:26:02.593Z,4.23
2022-10-25T11:28:52.838Z,4.97
2022-10-25T11:31:48.014Z,4.87
2022-10-25T11:34:53.364Z,6.57
2022-10-25T11:37:44.687Z,3.60
2022-10-25T11:40:34.192Z,5.80
2022-10-25T11:43:33.414Z,5.37
2022-10-25T11:46:34.422Z,4.67
2022-10-25T11:49:27.331Z,3.30
2022-10-25T11:52:28.623Z,4.13
2022-10-25T11:55:35.886Z,3.00
2022-10-25T11:58:29.291Z,4.43
2022-10-25T12:01:21.076Z,4.33
2022-10-25T12:04:06.761Z,5.07
2022-10-25T12:06:55.586Z,5.13
2022-10-25T12:09:46.305Z,4.67
2022-10-25T12:12:53.467Z,4.10
2022-10-25T12:15:46.354Z,3.83
2022-10-25T12:18:35.594Z,6.23
2022-10-25T12:21:28.331Z,5.00
2022-10-25T12:24:18.874Z,7.37
2022-10-25T12:27:04.798Z,3.87
2022-10-25T12:29:53.888Z,5.67
2022-10-25T12:32:42.310Z,3.20
2022-10-25T12:35:29.474Z,5.40
2022-10-25T12:38:21.507Z,3.50
2022-10-25T12:41:23.039Z,2.83
2022-10-25T12:44:18.219Z,2.67
2022-10-25T12:47:24.229Z,3.40
2022-10-25T12:50:31.340Z,4.20
2022-10-25T12:53:36.432Z,11.00
2022-10-25T12:56:41.014Z,3.40
2022-10-25T12:59:36.776Z,3.50
2022-10-25T13:02:41.249Z,4.20
2022-10-25T13:05:34.155Z,4.37
2022-10-25T13:08:22.331Z,4.60
2022-10-25T13:11:09.776Z,5.67
2022-10-25T13:13:56.082Z,6.90
2022-10-25T13:16:42.008Z,2.80
2022-10-25T13:19:53.629Z,7.67
2022-10-25T13:22:38.935Z,3.10
2022-10-25T13:25:30.948Z,3.43
2022-10-25T13:28:16.575Z,3.37
2022-10-25T13:31:21.079Z,2.97
2022-10-25T13:34:13.006Z,3.47
2022-10-25T13:37:00.475Z,3.00
2022-10-25T13:39:46.491Z,3.60
2022-10-25T13:42:33.901Z,5.23
2022-10-25T13:45:31.330Z,4.00
2022-10-25T13:48:25.915Z,4.57
2022-10-25T13:51:13.674Z,7.80
2022-10-25T13:54:02.121Z,3.73
2022-10-25T13:56:52.459Z,3.30
2022-10-25T13:59:58.737Z,4.40
2022-10-25T14:03:03.532Z,3.00
2022-10-25T14:05:58.249Z,3.73
2022-10-25T14:08:53.049Z,5.10
2022-10-25T14:11:47.228Z,7.60
2022-10-25T14:14:51.605Z,3.53
2022-10-25T14:17:43.262Z,4.87
2022-10-25T14:20:30.978Z,4.20
2022-10-25T14:23:20.939Z,3.40
2022-10-25T14:26:13.575Z,5.00
2022-10-25T14:29:13.589Z,3.40
2022-10-25T14:31:59.519Z,3.07
2022-10-25T14:34:49.573Z,3.37
2022-10-25T14:37:41.000Z,2.90
2022-10-25T14:40:29.019Z,5.00
2022-10-25T14:43:32.855Z,3.97
2022-10-25T14:46:19.856Z,3.93
2022-10-25T14:49:10.202Z,4.20
2022-10-25T14:52:01.187Z,6.23
2022-10-25T14:54:48.424Z,2.90
2022-10-25T14:57:34.601Z,4.90
2022-10-25T15:00:22.482Z,3.20
2022-10-25T15:03:08.392Z,6.60
2022-10-25T15:05:54.320Z,3.10
2022-10-25T15:08:40.929Z,4.47
2022-10-25T15:11:26.537Z,3.53
2022-10-25T15:14:16.544Z,6.17
2022-10-25T15:17:03.189Z,5.27
2022-10-25T15:20:03.270Z,2.70
2022-10-25T15:22:50.517Z,4.50
2022-10-25T15:25:39.451Z,3.40
2022-10-25T15:28:25.294Z,4.40
2022-10-25T15:31:14.758Z,7.30
2022-10-25T15:34:03.407Z,3.13
2022-10-25T15:36:49.886Z,4.80
2022-10-25T15:39:38.215Z,3.50
2022-10-25T15:42:25.255Z,2.90
2022-10-25T15:45:14.552Z,4.20
2022-10-25T15:48:01.183Z,3.00
2022-10-25T15:50:49.468Z,3.53
2022-10-25T15:53:35.415Z,4.80
2022-10-25T15:56:22.890Z,8.73
2022-10-25T15:59:09.175Z,2.40
2022-10-25T16:01:55.636Z,4.03
2022-10-25T16:04:41.250Z,2.60
2022-10-25T16:07:26.823Z,2.70
2022-10-25T16:10:12.880Z,4.10
2022-10-25T16:13:00.928Z,3.67
2022-10-25T16:15:46.474Z,3.90
2022-10-25T16:18:33.281Z,6.93
2022-10-25T16:21:22.470Z,3.47
2022-10-25T16:24:08.089Z,2.83
2022-10-25T16:26:53.833Z,3.10
2022-10-25T16:29:39.791Z,9.80
2022-10-25T16:32:25.334Z,3.37
2022-10-25T16:35:13.590Z,3.30
2022-10-25T16:37:59.437Z,6.50
2022-10-25T16:40:47.686Z,3.63
2022-10-25T16:43:33.500Z,2.57
2022-10-25T16:46:19.372Z,2.53
2022-10-25T16:49:05.261Z,6.37
2022-10-25T16:51:52.437Z,4.97
2022-10-25T16:54:38.088Z,3.43
2022-10-25T16:57:23.974Z,3.30
2022-10-25T17:00:10.791Z,5.27
2022-10-25T17:02:56.410Z,4.00
2022-10-25T17:05:42.241Z,4.10
2022-10-25T17:08:28.120Z,3.87
2022-10-25T17:11:17.805Z,4.40
2022-10-25T17:14:03.318Z,2.97
2022-10-25T17:16:51.453Z,7.50
2022-10-25T17:19:37.304Z,7.60
2022-10-25T17:22:25.189Z,10.90
2022-10-25T17:25:11.288Z,5.50
2022-10-25T17:27:57.246Z,5.97
2022-10-25T17:30:43.149Z,3.50
2022-10-25T17:33:28.990Z,5.13
2022-10-25T17:36:16.599Z,4.67
2022-10-25T17:39:02.423Z,5.77
2022-10-25T17:41:48.290Z,8.23
2022-10-25T17:44:35.256Z,8.50
2022-10-25T17:47:21.226Z,6.77
2022-10-25T17:50:07.261Z,9.33
2022-10-25T17:52:53.474Z,10.33
2022-10-25T17:55:41.136Z,9.50
2022-10-25T17:58:27.874Z,7.60
2022-10-25T18:01:14.840Z,6.27
2022-10-25T18:04:00.438Z,6.80
2022-10-25T18:06:46.090Z,10.93
2022-10-25T18:09:31.988Z,6.63
2022-10-25T18:12:17.667Z,7.93
2022-10-25T18:15:05.836Z,7.60
2022-10-25T18:17:51.579Z,6.40
2022-10-25T18:20:40.357Z,8.20
2022-10-25T18:23:26.093Z,6.17
2022-10-25T18:26:13.129Z,6.63
2022-10-25T18:29:00.230Z,8.97
2022-10-25T18:31:45.969Z,6.93
2022-10-25T18:34:32.120Z,8.43
2022-10-25T18:37:17.626Z,12.43
2022-10-25T18:40:03.302Z,9.77
2022-10-25T18:42:48.745Z,10.67
2022-10-25T18:45:36.064Z,8.43
2022-10-25T18:48:21.526Z,10.83
2022-10-25T18:51:08.048Z,15.40
2022-10-25T18:54:00.976Z,12.60
2022-10-25T18:56:47.357Z,11.73
2022-10-25T18:59:33.156Z,15.67
2022-10-25T19:02:19.168Z,13.70
2022-10-25T19:07:57.396Z,9.80
2022-10-25T19:10:43.156Z,10.93
2022-10-25T19:13:28.899Z,11.60
2022-10-25T19:16:16.611Z,13.23
2022-10-25T19:19:07.028Z,11.30
2022-10-25T19:21:53.753Z,17.40
2022-10-25T19:24:39.550Z,13.07
2022-10-25T19:27:25.645Z,12.27
2022-10-25T19:30:11.771Z,8.93
2022-10-25T19:33:00.895Z,10.27
2022-10-25T19:35:46.731Z,8.63
2022-10-25T19:38:32.326Z,9.80
2022-10-25T19:41:20.039Z,15.00
2022-10-25T19:44:05.640Z,9.00
2022-10-25T19:46:51.670Z,9.63
2022-10-25T19:49:37.282Z,14.73
2022-10-25T19:52:23.376Z,11.97
2022-10-25T19:55:08.885Z,14.27
2022-10-25T19:57:54.689Z,16.37
2022-10-25T20:00:42.003Z,14.53
2022-10-25T20:03:27.545Z,12.23
2022-10-25T20:06:21.774Z,13.30
2022-10-25T20:09:10.264Z,10.93
2022-10-25T20:11:56.318Z,9.97
2022-10-25T20:14:42.714Z,12.57
2022-10-25T20:17:28.567Z,12.40
2022-10-25T20:20:14.453Z,15.80
2022-10-25T20:22:59.980Z,10.23
2022-10-25T20:25:45.953Z,10.80
2022-10-25T20:28:33.032Z,8.93
2022-10-25T20:31:19.900Z,16.23
2022-10-25T20:34:05.909Z,11.27
2022-10-25T20:36:51.560Z,13.63
2022-10-25T20:39:37.609Z,15.90
2022-10-25T20:42:24.742Z,11.90
2022-10-25T20:45:10.858Z,10.07
2022-10-25T20:47:58.404Z,14.97
2022-10-25T20:50:49.658Z,12.13
2022-10-25T20:53:36.723Z,14.53
2022-10-25T20:56:22.711Z,11.13
2022-10-25T20:59:09.881Z,11.23
2022-10-25T21:01:56.585Z,10.80
2022-10-25T21:04:53.026Z,19.30
2022-10-25T21:07:39.799Z,12.50
2022-10-25T21:10:25.580Z,10.30
2022-10-25T21:13:13.711Z,11.40
2022-10-25T21:16:01.311Z,14.23
2022-10-25T21:18:47.034Z,8.97
2022-10-25T21:21:33.033Z,11.40
2022-10-25T21:24:18.781Z,14.10
2022-10-25T21:27:04.692Z,11.43
2022-10-25T21:29:50.636Z,10.90
2022-10-25T21:32:36.550Z,13.73
2022-10-25T21:35:22.890Z,13.83
2022-10-25T21:38:08.812Z,15.83
2022-10-25T21:40:54.599Z,10.13
2022-10-25T21:43:44.630Z,11.77
2022-10-25T21:46:30.441Z,11.80
2022-10-25T21:49:16.307Z,15.23
2022-10-25T21:52:02.092Z,10.70
2022-10-25T21:54:47.989Z,15.33
2022-10-25T21:57:34.771Z,12.00
2022-10-25T22:00:20.280Z,12.07
2022-10-25T22:03:06.032Z,9.40
2022-10-25T22:05:52.065Z,13.20
2022-10-25T22:08:38.070Z,9.83
2022-10-25T22:11:25.701Z,13.77
2022-10-25T22:14:13.889Z,12.47
2022-10-25T22:16:59.917Z,13.03
2022-10-25T22:19:46.368Z,13.00
2022-10-25T22:22:32.133Z,11.50
2022-10-25T22:25:18.907Z,15.23
2022-10-25T22:28:05.431Z,8.47
2022-10-25T22:30:57.498Z,9.20
2022-10-25T22:33:44.736Z,17.30
2022-10-25T22:36:32.262Z,10.53
2022-10-25T22:39:18.480Z,8.63
2022-10-25T22:42:11.433Z,13.97
2022-10-25T22:44:57.178Z,7.83
2022-10-25T22:47:43.097Z,10.07
2022-10-25T22:50:28.953Z,14.40
2022-10-25T22:53:16.187Z,10.07
2022-10-25T22:56:02.196Z,14.17
2022-10-25T22:58:55.366Z,11.67
2022-10-25T23:01:41.382Z,14.37
2022-10-25T23:04:27.424Z,11.17
2022-10-25T23:07:13.244Z,17.80
2022-10-25T23:09:59.090Z,12.07
2022-10-25T23:12:48.890Z,12.17
2022-10-25T23:15:35.818Z,9.27
2022-10-25T23:18:21.763Z,9.33
2022-10-25T23:21:09.953Z,12.27
2022-10-25T23:23:56.872Z,15.10
2022-10-25T23:26:42.897Z,9.30
2022-10-25T23:29:28.908Z,11.20
2022-10-25T23:32:14.882Z,9.93
2022-10-25T23:35:00.964Z,18.97
2022-10-25T23:37:47.028Z,13.43
2022-10-25T23:40:33.872Z,13.17
2022-10-25T23:43:19.929Z,8.90
2022-10-25T23:46:06.631Z,12.50
2022-10-25T23:48:53.000Z,12.20
2022-10-25T23:51:38.898Z,9.33
2022-10-25T23:54:25.407Z,9.07
2022-10-25T23:57:11.453Z,12.13
2022-10-25T23:59:57.379Z,11.27
